Forside
METAR-TAF:

METAR-TAF

Lufthavne :

Cleveland, Ohio, USA

Breddekreds: 41-31-32N, længdekreds: 081-40-08W, højde: 178 m

Aktuelle vejr

Denne rapport blev lavet for 37 minutter siden, kl. 20:53 UTC
Vind 13 kt fra sydvest
Temperatur 2°C
Fugtighed 80%
Tryk 1009 hPa
Sigt: 9.7 km
Brudte skyer i en højde af 1300 ft
Overskyet i en højde af 1800 ft
let regn, dis

METAR: KBKL 262053Z 23013KT 6SM -RA BR BKN013 OVC018 02/M01 A2981 RMK AO2 RAB11 SLP101 P0000 60000 T00171006 56003

Tid: 16:30 (21:30 UTC)


TAF: fraværende

Vejrobservationer og prognoser fra mere end 4000 lufthavne (METAR og TAF).

De gule og røde prikker repræsenterer de meteorologiske stationer.

Flyt musen over at se navnet på stationen.

Så klik over at se vejr observationer og prognoser.

At skifte det kort: Klik på de grønne knapper med et sort kors for at zoome ind; på den grønne knap med en bindestreg for at zoome ud; eller på de grønne pile for tilstødende kort.


METAR-TAF: